sensor_id;sensor_type;location;lat;lon;timestamp;temperature;humidity
4207;DHT22;2117;47.972;7.830;2022-11-15T02:32:57;11.20;99.90
4207;DHT22;2117;47.972;7.830;2022-11-15T02:35:37;11.40;99.90
4207;DHT22;2117;47.972;7.830;2022-11-15T02:39:13;11.60;99.90
4207;DHT22;2117;47.972;7.830;2022-11-15T02:41:32;11.70;99.90
4207;DHT22;2117;47.972;7.830;2022-11-15T02:44:05;11.90;99.90
4207;DHT22;2117;47.972;7.830;2022-11-15T02:48:57;12.00;99.90
4207;DHT22;2117;47.972;7.830;2022-11-15T02:51:23;12.00;99.90
4207;DHT22;2117;47.972;7.830;2022-11-15T02:53:48;12.00;99.90
4207;DHT22;2117;47.972;7.830;2022-11-15T02:56:14;12.00;99.90
4207;DHT22;2117;47.972;7.830;2022-11-15T03:01:28;12.00;99.90
4207;DHT22;2117;47.972;7.830;2022-11-15T03:04:15;12.00;99.90
4207;DHT22;2117;47.972;7.830;2022-11-15T03:06:55;11.90;99.90
4207;DHT22;2117;47.972;7.830;2022-11-15T03:09:42;12.00;99.90
4207;DHT22;2117;47.972;7.830;2022-11-15T03:12:30;11.90;99.90
4207;DHT22;2117;47.972;7.830;2022-11-15T03:15:24;11.90;99.90
4207;DHT22;2117;47.972;7.830;2022-11-15T03:18:08;11.90;99.90
4207;DHT22;2117;47.972;7.830;2022-11-15T03:20:37;11.90;99.90
4207;DHT22;2117;47.972;7.830;2022-11-15T03:23:10;11.80;99.90
4207;DHT22;2117;47.972;7.830;2022-11-15T03:25:40;11.90;99.90
4207;DHT22;2117;47.972;7.830;2022-11-15T03:28:09;11.90;99.90
4207;DHT22;2117;47.972;7.830;2022-11-15T03:30:39;11.90;99.90
4207;DHT22;2117;47.972;7.830;2022-11-15T03:33:05;11.90;99.90
4207;DHT22;2117;47.972;7.830;2022-11-15T03:35:38;11.90;99.90
4207;DHT22;2117;47.972;7.830;2022-11-15T03:38:14;11.90;99.90
4207;DHT22;2117;47.972;7.830;2022-11-15T03:40:43;11.90;99.90
4207;DHT22;2117;47.972;7.830;2022-11-15T03:43:34;11.90;99.90
4207;DHT22;2117;47.972;7.830;2022-11-15T03:46:27;11.90;99.90
4207;DHT22;2117;47.972;7.830;2022-11-15T03:48:59;11.90;99.90
4207;DHT22;2117;47.972;7.830;2022-11-15T03:51:26;12.00;99.90
4207;DHT22;2117;47.972;7.830;2022-11-15T03:53:51;12.00;99.90
4207;DHT22;2117;47.972;7.830;2022-11-15T03:56:17;12.00;99.90
4207;DHT22;2117;47.972;7.830;2022-11-15T03:58:42;12.00;99.90
4207;DHT22;2117;47.972;7.830;2022-11-15T04:01:08;11.90;99.90
4207;DHT22;2117;47.972;7.830;2022-11-15T04:03:34;11.90;99.90
4207;DHT22;2117;47.972;7.830;2022-11-15T04:05:59;11.90;99.90
4207;DHT22;2117;47.972;7.830;2022-11-15T04:08:25;11.90;99.90
4207;DHT22;2117;47.972;7.830;2022-11-15T04:10:50;11.80;99.90
4207;DHT22;2117;47.972;7.830;2022-11-15T04:13:16;11.80;99.90
4207;DHT22;2117;47.972;7.830;2022-11-15T04:15:42;11.80;99.90
4207;DHT22;2117;47.972;7.830;2022-11-15T04:18:07;11.70;99.90
4207;DHT22;2117;47.972;7.830;2022-11-15T04:20:33;11.70;99.90
4207;DHT22;2117;47.972;7.830;2022-11-15T04:23:19;11.70;99.90
4207;DHT22;2117;47.972;7.830;2022-11-15T04:26:09;11.70;99.90
4207;DHT22;2117;47.972;7.830;2022-11-15T04:28:36;11.70;99.90
4207;DHT22;2117;47.972;7.830;2022-11-15T04:31:25;11.60;99.90
4207;DHT22;2117;47.972;7.830;2022-11-15T04:33:50;11.60;99.90
4207;DHT22;2117;47.972;7.830;2022-11-15T04:36:16;11.50;99.90
4207;DHT22;2117;47.972;7.830;2022-11-15T04:39:00;11.50;99.90
4207;DHT22;2117;47.972;7.830;2022-11-15T04:41:26;11.40;99.90
4207;DHT22;2117;47.972;7.830;2022-11-15T04:43:51;11.50;99.90
4207;DHT22;2117;47.972;7.830;2022-11-15T04:46:17;11.40;99.90
4207;DHT22;2117;47.972;7.830;2022-11-15T04:48:43;11.30;99.90
4207;DHT22;2117;47.972;7.830;2022-11-15T04:51:08;11.30;99.90
4207;DHT22;2117;47.972;7.830;2022-11-15T04:53:34;11.20;99.90
4207;DHT22;2117;47.972;7.830;2022-11-15T04:55:59;11.20;99.90
4207;DHT22;2117;47.972;7.830;2022-11-15T04:58:25;11.20;99.90
4207;DHT22;2117;47.972;7.830;2022-11-15T05:00:50;11.10;99.90
4207;DHT22;2117;47.972;7.830;2022-11-15T05:03:16;11.20;99.90
4207;DHT22;2117;47.972;7.830;2022-11-15T05:06:01;11.20;99.90
4207;DHT22;2117;47.972;7.830;2022-11-15T05:08:26;11.10;99.90
4207;DHT22;2117;47.972;7.830;2022-11-15T05:10:52;11.10;99.90
4207;DHT22;2117;47.972;7.830;2022-11-15T05:13:17;11.00;99.90
4207;DHT22;2117;47.972;7.830;2022-11-15T05:15:43;11.00;99.90
4207;DHT22;2117;47.972;7.830;2022-11-15T05:18:09;11.00;99.90
4207;DHT22;2117;47.972;7.830;2022-11-15T05:20:34;11.00;99.90
4207;DHT22;2117;47.972;7.830;2022-11-15T05:23:00;10.90;99.90
4207;DHT22;2117;47.972;7.830;2022-11-15T05:25:26;11.00;99.90
4207;DHT22;2117;47.972;7.830;2022-11-15T05:27:52;11.00;99.90
4207;DHT22;2117;47.972;7.830;2022-11-15T05:30:18;11.00;99.90
4207;DHT22;2117;47.972;7.830;2022-11-15T05:32:44;11.00;99.90
4207;DHT22;2117;47.972;7.830;2022-11-15T05:35:29;11.00;99.90
4207;DHT22;2117;47.972;7.830;2022-11-15T05:37:55;10.90;99.90
4207;DHT22;2117;47.972;7.830;2022-11-15T05:40:20;10.90;99.90
4207;DHT22;2117;47.972;7.830;2022-11-15T05:42:46;10.90;99.90
4207;DHT22;2117;47.972;7.830;2022-11-15T05:45:12;10.80;99.90
4207;DHT22;2117;47.972;7.830;2022-11-15T05:47:39;10.90;99.90
4207;DHT22;2117;47.972;7.830;2022-11-15T05:50:05;10.80;99.90
4207;DHT22;2117;47.972;7.830;2022-11-15T05:52:33;10.80;99.90
4207;DHT22;2117;47.972;7.830;2022-11-15T05:55:00;10.80;99.90
4207;DHT22;2117;47.972;7.830;2022-11-15T05:57:26;10.80;99.90
4207;DHT22;2117;47.972;7.830;2022-11-15T05:59:53;10.80;99.90
4207;DHT22;2117;47.972;7.830;2022-11-15T06:02:19;10.80;99.90
4207;DHT22;2117;47.972;7.830;2022-11-15T06:04:44;10.80;99.90
4207;DHT22;2117;47.972;7.830;2022-11-15T06:07:10;10.80;99.90
4207;DHT22;2117;47.972;7.830;2022-11-15T06:09:35;10.80;99.90
4207;DHT22;2117;47.972;7.830;2022-11-15T06:12:01;10.80;99.90
4207;DHT22;2117;47.972;7.830;2022-11-15T06:14:27;10.80;99.90
4207;DHT22;2117;47.972;7.830;2022-11-15T06:16:52;10.80;99.90
4207;DHT22;2117;47.972;7.830;2022-11-15T06:19:18;10.80;99.90
4207;DHT22;2117;47.972;7.830;2022-11-15T06:21:43;10.80;99.90
4207;DHT22;2117;47.972;7.830;2022-11-15T06:24:09;10.70;99.90
4207;DHT22;2117;47.972;7.830;2022-11-15T06:26:34;10.80;99.90
4207;DHT22;2117;47.972;7.830;2022-11-15T06:29:01;10.80;99.90
4207;DHT22;2117;47.972;7.830;2022-11-15T06:31:27;10.80;99.90
4207;DHT22;2117;47.972;7.830;2022-11-15T06:33:52;10.80;99.90
4207;DHT22;2117;47.972;7.830;2022-11-15T06:36:18;10.80;99.90
4207;DHT22;2117;47.972;7.830;2022-11-15T06:38:44;10.80;99.90
4207;DHT22;2117;47.972;7.830;2022-11-15T06:41:11;10.80;99.90
4207;DHT22;2117;47.972;7.830;2022-11-15T06:43:37;10.80;99.90
4207;DHT22;2117;47.972;7.830;2022-11-15T06:46:04;10.80;99.90
4207;DHT22;2117;47.972;7.830;2022-11-15T06:48:31;10.80;99.90
4207;DHT22;2117;47.972;7.830;2022-11-15T06:50:58;10.80;99.90
4207;DHT22;2117;47.972;7.830;2022-11-15T06:53:25;10.80;99.90
4207;DHT22;2117;47.972;7.830;2022-11-15T06:55:51;10.80;99.90
4207;DHT22;2117;47.972;7.830;2022-11-15T06:58:17;10.80;99.90
4207;DHT22;2117;47.972;7.830;2022-11-15T07:00:42;10.80;99.90
4207;DHT22;2117;47.972;7.830;2022-11-15T07:03:08;10.80;99.90
4207;DHT22;2117;47.972;7.830;2022-11-15T07:05:35;10.90;99.90
4207;DHT22;2117;47.972;7.830;2022-11-15T07:08:00;10.90;99.90
4207;DHT22;2117;47.972;7.830;2022-11-15T07:10:26;10.90;99.90
4207;DHT22;2117;47.972;7.830;2022-11-15T07:12:53;10.90;99.90
4207;DHT22;2117;47.972;7.830;2022-11-15T07:15:22;10.90;99.90
4207;DHT22;2117;47.972;7.830;2022-11-15T07:17:48;10.90;99.90
4207;DHT22;2117;47.972;7.830;2022-11-15T07:20:14;11.00;99.90
4207;DHT22;2117;47.972;7.830;2022-11-15T07:22:40;11.00;99.90
4207;DHT22;2117;47.972;7.830;2022-11-15T07:25:07;11.00;99.90
4207;DHT22;2117;47.972;7.830;2022-11-15T07:27:33;11.00;99.90
4207;DHT22;2117;47.972;7.830;2022-11-15T07:29:58;11.00;99.90
4207;DHT22;2117;47.972;7.830;2022-11-15T07:32:24;11.10;99.90
4207;DHT22;2117;47.972;7.830;2022-11-15T07:34:49;11.00;99.90
4207;DHT22;2117;47.972;7.830;2022-11-15T07:37:15;11.10;99.90
4207;DHT22;2117;47.972;7.830;2022-11-15T07:39:42;11.10;99.90
4207;DHT22;2117;47.972;7.830;2022-11-15T07:42:08;11.20;99.90
4207;DHT22;2117;47.972;7.830;2022-11-15T07:44:52;11.20;99.90
4207;DHT22;2117;47.972;7.830;2022-11-15T07:47:17;11.20;99.90
4207;DHT22;2117;47.972;7.830;2022-11-15T07:49:43;11.20;99.90
4207;DHT22;2117;47.972;7.830;2022-11-15T07:52:09;11.20;99.90
4207;DHT22;2117;47.972;7.830;2022-11-15T07:54:34;11.30;99.90
4207;DHT22;2117;47.972;7.830;2022-11-15T07:57:00;11.30;99.90
4207;DHT22;2117;47.972;7.830;2022-11-15T07:59:25;11.40;99.90
4207;DHT22;2117;47.972;7.830;2022-11-15T08:01:51;11.40;99.90
4207;DHT22;2117;47.972;7.830;2022-11-15T08:04:16;11.50;99.90
4207;DHT22;2117;47.972;7.830;2022-11-15T08:06:42;11.50;99.90
4207;DHT22;2117;47.972;7.830;2022-11-15T08:09:07;11.50;99.90
4207;DHT22;2117;47.972;7.830;2022-11-15T08:11:33;11.60;99.90
4207;DHT22;2117;47.972;7.830;2022-11-15T08:13:59;11.70;99.90
4207;DHT22;2117;47.972;7.830;2022-11-15T08:16:24;11.70;99.90
4207;DHT22;2117;47.972;7.830;2022-11-15T08:18:50;11.70;99.90
4207;DHT22;2117;47.972;7.830;2022-11-15T08:21:19;11.80;99.90
4207;DHT22;2117;47.972;7.830;2022-11-15T08:23:45;11.80;99.90
4207;DHT22;2117;47.972;7.830;2022-11-15T08:26:10;11.80;99.90
4207;DHT22;2117;47.972;7.830;2022-11-15T08:28:36;11.90;99.90
4207;DHT22;2117;47.972;7.830;2022-11-15T08:31:02;11.90;99.90
4207;DHT22;2117;47.972;7.830;2022-11-15T08:33:28;12.00;99.90
4207;DHT22;2117;47.972;7.830;2022-11-15T08:35:56;12.10;99.90
4207;DHT22;2117;47.972;7.830;2022-11-15T08:38:22;12.10;99.90
4207;DHT22;2117;47.972;7.830;2022-11-15T08:40:49;12.10;99.90
4207;DHT22;2117;47.972;7.830;2022-11-15T08:43:15;12.10;99.90
4207;DHT22;2117;47.972;7.830;2022-11-15T08:45:40;12.20;99.90
4207;DHT22;2117;47.972;7.830;2022-11-15T08:48:06;12.20;99.90
4207;DHT22;2117;47.972;7.830;2022-11-15T08:50:32;12.30;99.90
4207;DHT22;2117;47.972;7.830;2022-11-15T08:52:59;12.20;99.90
4207;DHT22;2117;47.972;7.830;2022-11-15T08:55:28;12.30;99.90
4207;DHT22;2117;47.972;7.830;2022-11-15T08:57:57;12.30;99.90
4207;DHT22;2117;47.972;7.830;2022-11-15T09:00:23;12.40;99.90
4207;DHT22;2117;47.972;7.830;2022-11-15T09:02:48;12.40;99.90
4207;DHT22;2117;47.972;7.830;2022-11-15T09:05:14;12.60;99.90
4207;DHT22;2117;47.972;7.830;2022-11-15T09:07:44;12.70;99.90
4207;DHT22;2117;47.972;7.830;2022-11-15T09:10:09;12.60;99.90
4207;DHT22;2117;47.972;7.830;2022-11-15T09:12:35;12.50;99.90
4207;DHT22;2117;47.972;7.830;2022-11-15T09:15:00;12.50;99.90
4207;DHT22;2117;47.972;7.830;2022-11-15T09:17:26;12.50;99.90
4207;DHT22;2117;47.972;7.830;2022-11-15T09:19:51;12.40;99.90
4207;DHT22;2117;47.972;7.830;2022-11-15T09:22:17;12.50;99.90
4207;DHT22;2117;47.972;7.830;2022-11-15T09:24:43;12.50;99.90
4207;DHT22;2117;47.972;7.830;2022-11-15T09:27:09;12.50;99.90
4207;DHT22;2117;47.972;7.830;2022-11-15T09:29:34;12.50;99.90
4207;DHT22;2117;47.972;7.830;2022-11-15T09:32:00;12.50;99.90
4207;DHT22;2117;47.972;7.830;2022-11-15T09:34:25;12.50;99.90
4207;DHT22;2117;47.972;7.830;2022-11-15T09:36:51;12.50;99.90
4207;DHT22;2117;47.972;7.830;2022-11-15T09:39:17;12.60;99.90
4207;DHT22;2117;47.972;7.830;2022-11-15T09:49:59;12.70;99.90
4207;DHT22;2117;47.972;7.830;2022-11-15T09:52:27;12.80;99.90
4207;DHT22;2117;47.972;7.830;2022-11-15T09:54:53;12.80;99.90
4207;DHT22;2117;47.972;7.830;2022-11-15T10:02:51;12.90;99.90
4207;DHT22;2117;47.972;7.830;2022-11-15T10:05:24;12.90;99.90
4207;DHT22;2117;47.972;7.830;2022-11-15T10:10:48;13.10;99.90
4207;DHT22;2117;47.972;7.830;2022-11-15T10:13:23;13.10;99.90
4207;DHT22;2117;47.972;7.830;2022-11-15T10:15:51;13.10;99.90
4207;DHT22;2117;47.972;7.830;2022-11-15T10:18:34;13.20;99.90
4207;DHT22;2117;47.972;7.830;2022-11-15T10:21:38;13.20;99.90
4207;DHT22;2117;47.972;7.830;2022-11-15T10:24:12;13.10;99.90
4207;DHT22;2117;47.972;7.830;2022-11-15T10:26:45;13.20;99.90
4207;DHT22;2117;47.972;7.830;2022-11-15T10:29:11;13.20;99.90
4207;DHT22;2117;47.972;7.830;2022-11-15T10:31:40;13.20;99.90
4207;DHT22;2117;47.972;7.830;2022-11-15T10:34:17;13.20;99.90
4207;DHT22;2117;47.972;7.830;2022-11-15T10:36:59;13.30;99.90
4207;DHT22;2117;47.972;7.830;2022-11-15T10:39:25;13.30;99.90
4207;DHT22;2117;47.972;7.830;2022-11-15T10:41:51;13.30;99.90
4207;DHT22;2117;47.972;7.830;2022-11-15T10:49:28;13.30;99.90
4207;DHT22;2117;47.972;7.830;2022-11-15T10:54:43;13.40;99.90
4207;DHT22;2117;47.972;7.830;2022-11-15T10:57:18;13.40;99.90
4207;DHT22;2117;47.972;7.830;2022-11-15T11:05:28;13.40;99.90
4207;DHT22;2117;47.972;7.830;2022-11-15T11:10:28;13.50;99.90
4207;DHT22;2117;47.972;7.830;2022-11-15T11:12:53;13.50;99.90
4207;DHT22;2117;47.972;7.830;2022-11-15T11:15:20;13.50;99.90
4207;DHT22;2117;47.972;7.830;2022-11-15T11:18:07;13.60;99.90
4207;DHT22;2117;47.972;7.830;2022-11-15T11:20:51;13.60;99.90
4207;DHT22;2117;47.972;7.830;2022-11-15T11:37:19;13.80;99.90
4207;DHT22;2117;47.972;7.830;2022-11-15T11:42:54;13.90;99.90
4207;DHT22;2117;47.972;7.830;2022-11-15T11:48:27;14.00;99.90
4207;DHT22;2117;47.972;7.830;2022-11-15T11:51:07;14.00;99.90
4207;DHT22;2117;47.972;7.830;2022-11-15T11:53:54;14.10;99.90
4207;DHT22;2117;47.972;7.830;2022-11-15T11:56:31;14.20;99.90
4207;DHT22;2117;47.972;7.830;2022-11-15T11:59:17;14.20;99.90
4207;DHT22;2117;47.972;7.830;2022-11-15T12:01:44;14.30;99.90
4207;DHT22;2117;47.972;7.830;2022-11-15T12:04:21;14.30;99.90
4207;DHT22;2117;47.972;7.830;2022-11-15T12:07:01;14.40;99.90
4207;DHT22;2117;47.972;7.830;2022-11-15T12:09:38;14.40;99.90
4207;DHT22;2117;47.972;7.830;2022-11-15T12:17:35;14.40;99.90
4207;DHT22;2117;47.972;7.830;2022-11-15T12:20:17;14.40;99.90
4207;DHT22;2117;47.972;7.830;2022-11-15T12:25:55;14.50;99.90
4207;DHT22;2117;47.972;7.830;2022-11-15T12:31:14;14.50;99.90
4207;DHT22;2117;47.972;7.830;2022-11-15T12:33:47;14.60;99.90
4207;DHT22;2117;47.972;7.830;2022-11-15T12:41:33;14.90;99.90
4207;DHT22;2117;47.972;7.830;2022-11-15T12:43:59;14.90;99.90
4207;DHT22;2117;47.972;7.830;2022-11-15T12:49:23;14.90;99.90
4207;DHT22;2117;47.972;7.830;2022-11-15T13:02:26;14.90;99.90
4207;DHT22;2117;47.972;7.830;2022-11-15T13:04:55;14.80;99.90
4207;DHT22;2117;47.972;7.830;2022-11-15T13:17:48;14.40;99.90
4207;DHT22;2117;47.972;7.830;2022-11-15T13:33:31;14.30;99.90
4207;DHT22;2117;47.972;7.830;2022-11-15T13:35:59;14.40;99.90
4207;DHT22;2117;47.972;7.830;2022-11-15T13:38:29;14.40;99.90
4207;DHT22;2117;47.972;7.830;2022-11-15T13:40:56;14.50;99.90
4207;DHT22;2117;47.972;7.830;2022-11-15T13:46:11;14.50;99.90
4207;DHT22;2117;47.972;7.830;2022-11-15T13:48:39;14.60;99.90
4207;DHT22;2117;47.972;7.830;2022-11-15T13:51:09;14.60;99.90
4207;DHT22;2117;47.972;7.830;2022-11-15T13:53:38;14.60;99.90
4207;DHT22;2117;47.972;7.830;2022-11-15T13:56:06;14.70;99.90
4207;DHT22;2117;47.972;7.830;2022-11-15T13:58:31;14.60;99.90
4207;DHT22;2117;47.972;7.830;2022-11-15T14:01:03;14.60;99.90
4207;DHT22;2117;47.972;7.830;2022-11-15T14:03:32;14.60;99.90
4207;DHT22;2117;47.972;7.830;2022-11-15T14:06:17;14.50;99.90
4207;DHT22;2117;47.972;7.830;2022-11-15T14:11:32;14.30;99.90
4207;DHT22;2117;47.972;7.830;2022-11-15T14:16:37;14.20;99.90
4207;DHT22;2117;47.972;7.830;2022-11-15T14:19:04;14.20;99.90
4207;DHT22;2117;47.972;7.830;2022-11-15T14:21:30;14.20;99.90
4207;DHT22;2117;47.972;7.830;2022-11-15T14:24:15;14.20;99.90
4207;DHT22;2117;47.972;7.830;2022-11-15T14:26:41;14.20;99.90
4207;DHT22;2117;47.972;7.830;2022-11-15T14:31:48;14.30;99.90
4207;DHT22;2117;47.972;7.830;2022-11-15T14:34:14;14.30;99.90
4207;DHT22;2117;47.972;7.830;2022-11-15T14:36:40;14.30;99.90
4207;DHT22;2117;47.972;7.830;2022-11-15T14:39:05;14.30;99.90
4207;DHT22;2117;47.972;7.830;2022-11-15T14:41:35;14.20;99.90
4207;DHT22;2117;47.972;7.830;2022-11-15T14:44:03;14.10;99.90
4207;DHT22;2117;47.972;7.830;2022-11-15T14:46:29;14.10;99.90
4207;DHT22;2117;47.972;7.830;2022-11-15T14:48:55;14.10;99.90
4207;DHT22;2117;47.972;7.830;2022-11-15T14:51:20;14.10;99.90
4207;DHT22;2117;47.972;7.830;2022-11-15T14:53:46;14.00;99.90
4207;DHT22;2117;47.972;7.830;2022-11-15T14:56:13;14.10;99.90
4207;DHT22;2117;47.972;7.830;2022-11-15T14:58:38;14.00;99.90
4207;DHT22;2117;47.972;7.830;2022-11-15T15:01:15;14.00;99.90
4207;DHT22;2117;47.972;7.830;2022-11-15T15:03:42;14.00;99.90
4207;DHT22;2117;47.972;7.830;2022-11-15T15:06:09;13.90;99.90
4207;DHT22;2117;47.972;7.830;2022-11-15T15:08:35;13.90;99.90
4207;DHT22;2117;47.972;7.830;2022-11-15T15:11:00;13.90;99.90
4207;DHT22;2117;47.972;7.830;2022-11-15T15:13:26;13.90;99.90
4207;DHT22;2117;47.972;7.830;2022-11-15T15:15:54;13.80;99.90
4207;DHT22;2117;47.972;7.830;2022-11-15T15:18:20;13.80;99.90
4207;DHT22;2117;47.972;7.830;2022-11-15T15:20:58;13.80;99.90
4207;DHT22;2117;47.972;7.830;2022-11-15T15:23:32;13.80;99.90
4207;DHT22;2117;47.972;7.830;2022-11-15T15:25:58;13.80;99.90
4207;DHT22;2117;47.972;7.830;2022-11-15T15:28:24;13.70;99.90
4207;DHT22;2117;47.972;7.830;2022-11-15T15:30:50;13.70;99.90
4207;DHT22;2117;47.972;7.830;2022-11-15T15:33:16;13.70;99.90
4207;DHT22;2117;47.972;7.830;2022-11-15T15:35:42;13.60;99.90
4207;DHT22;2117;47.972;7.830;2022-11-15T15:38:13;13.60;99.90
4207;DHT22;2117;47.972;7.830;2022-11-15T15:40:40;13.50;99.90
4207;DHT22;2117;47.972;7.830;2022-11-15T15:43:06;13.50;99.90
4207;DHT22;2117;47.972;7.830;2022-11-15T15:45:36;13.40;99.90
4207;DHT22;2117;47.972;7.830;2022-11-15T15:48:02;13.40;99.90
4207;DHT22;2117;47.972;7.830;2022-11-15T15:50:31;13.30;99.90
4207;DHT22;2117;47.972;7.830;2022-11-15T15:53:00;13.40;99.90
4207;DHT22;2117;47.972;7.830;2022-11-15T15:55:26;13.30;99.90
4207;DHT22;2117;47.972;7.830;2022-11-15T15:57:52;13.30;99.90
4207;DHT22;2117;47.972;7.830;2022-11-15T16:00:19;13.20;99.90
4207;DHT22;2117;47.972;7.830;2022-11-15T16:02:44;13.20;99.90
4207;DHT22;2117;47.972;7.830;2022-11-15T16:05:11;13.20;99.90
4207;DHT22;2117;47.972;7.830;2022-11-15T16:07:37;13.20;99.90
4207;DHT22;2117;47.972;7.830;2022-11-15T16:10:20;13.10;99.90
4207;DHT22;2117;47.972;7.830;2022-11-15T16:12:47;13.10;99.90
4207;DHT22;2117;47.972;7.830;2022-11-15T16:15:13;13.00;99.90
4207;DHT22;2117;47.972;7.830;2022-11-15T16:17:50;13.00;99.90
4207;DHT22;2117;47.972;7.830;2022-11-15T16:20:39;12.90;99.90
4207;DHT22;2117;47.972;7.830;2022-11-15T16:23:08;13.00;99.90
4207;DHT22;2117;47.972;7.830;2022-11-15T16:25:41;12.90;99.90
4207;DHT22;2117;47.972;7.830;2022-11-15T16:28:24;12.90;99.90
4207;DHT22;2117;47.972;7.830;2022-11-15T16:31:03;12.90;99.90
4207;DHT22;2117;47.972;7.830;2022-11-15T16:33:28;12.90;99.90
4207;DHT22;2117;47.972;7.830;2022-11-15T16:35:54;12.80;99.90
4207;DHT22;2117;47.972;7.830;2022-11-15T16:38:20;12.80;99.90
4207;DHT22;2117;47.972;7.830;2022-11-15T16:40:45;12.80;99.90
4207;DHT22;2117;47.972;7.830;2022-11-15T16:43:11;12.80;99.90
4207;DHT22;2117;47.972;7.830;2022-11-15T16:45:37;12.80;99.90
4207;DHT22;2117;47.972;7.830;2022-11-15T16:48:03;12.70;99.90
4207;DHT22;2117;47.972;7.830;2022-11-15T16:50:32;12.70;99.90
4207;DHT22;2117;47.972;7.830;2022-11-15T16:53:00;12.70;99.90
4207;DHT22;2117;47.972;7.830;2022-11-15T16:55:27;12.70;99.90
4207;DHT22;2117;47.972;7.830;2022-11-15T16:57:54;12.80;99.90
4207;DHT22;2117;47.972;7.830;2022-11-15T17:00:22;12.90;99.90
4207;DHT22;2117;47.972;7.830;2022-11-15T17:02:49;12.90;99.90
4207;DHT22;2117;47.972;7.830;2022-11-15T17:05:17;12.90;99.90
4207;DHT22;2117;47.972;7.830;2022-11-15T17:07:45;12.90;99.90
4207;DHT22;2117;47.972;7.830;2022-11-15T17:10:11;12.90;99.90
4207;DHT22;2117;47.972;7.830;2022-11-15T17:12:37;12.80;99.90
4207;DHT22;2117;47.972;7.830;2022-11-15T17:15:03;12.70;99.90
4207;DHT22;2117;47.972;7.830;2022-11-15T17:17:30;12.70;99.90
4207;DHT22;2117;47.972;7.830;2022-11-15T17:19:56;12.70;99.90
4207;DHT22;2117;47.972;7.830;2022-11-15T17:22:21;12.60;99.90
4207;DHT22;2117;47.972;7.830;2022-11-15T17:24:47;12.60;99.90
4207;DHT22;2117;47.972;7.830;2022-11-15T17:27:13;12.60;99.90
4207;DHT22;2117;47.972;7.830;2022-11-15T17:29:39;12.50;99.90
4207;DHT22;2117;47.972;7.830;2022-11-15T17:32:06;12.50;99.90
4207;DHT22;2117;47.972;7.830;2022-11-15T17:34:31;12.40;99.90
4207;DHT22;2117;47.972;7.830;2022-11-15T17:36:57;12.40;99.90
4207;DHT22;2117;47.972;7.830;2022-11-15T17:39:22;12.30;99.90
4207;DHT22;2117;47.972;7.830;2022-11-15T17:41:49;12.30;99.90
4207;DHT22;2117;47.972;7.830;2022-11-15T17:44:15;12.30;99.90
4207;DHT22;2117;47.972;7.830;2022-11-15T17:46:40;12.30;99.90
4207;DHT22;2117;47.972;7.830;2022-11-15T17:49:06;12.20;99.90
4207;DHT22;2117;47.972;7.830;2022-11-15T17:51:31;12.20;99.90
4207;DHT22;2117;47.972;7.830;2022-11-15T17:53:57;12.20;99.90
4207;DHT22;2117;47.972;7.830;2022-11-15T17:56:25;12.20;99.90
4207;DHT22;2117;47.972;7.830;2022-11-15T17:58:53;12.20;99.90
4207;DHT22;2117;47.972;7.830;2022-11-15T18:01:20;12.20;99.90
4207;DHT22;2117;47.972;7.830;2022-11-15T18:03:47;12.20;99.90
4207;DHT22;2117;47.972;7.830;2022-11-15T18:06:13;12.20;99.90
4207;DHT22;2117;47.972;7.830;2022-11-15T18:08:41;12.10;99.90
4207;DHT22;2117;47.972;7.830;2022-11-15T18:11:20;12.10;99.90
4207;DHT22;2117;47.972;7.830;2022-11-15T18:13:50;12.10;99.90
4207;DHT22;2117;47.972;7.830;2022-11-15T18:16:18;12.20;99.90
4207;DHT22;2117;47.972;7.830;2022-11-15T18:18:44;12.20;99.90
4207;DHT22;2117;47.972;7.830;2022-11-15T18:21:10;12.20;99.90
4207;DHT22;2117;47.972;7.830;2022-11-15T18:23:37;12.20;99.90
4207;DHT22;2117;47.972;7.830;2022-11-15T18:26:04;12.10;99.90
4207;DHT22;2117;47.972;7.830;2022-11-15T18:28:33;12.10;99.90
4207;DHT22;2117;47.972;7.830;2022-11-15T18:30:59;12.00;99.90
4207;DHT22;2117;47.972;7.830;2022-11-15T18:33:26;12.00;99.90
4207;DHT22;2117;47.972;7.830;2022-11-15T18:36:00;12.00;99.90
4207;DHT22;2117;47.972;7.830;2022-11-15T18:38:26;12.00;99.90
4207;DHT22;2117;47.972;7.830;2022-11-15T18:41:08;12.00;99.90
4207;DHT22;2117;47.972;7.830;2022-11-15T18:43:35;12.00;99.90
4207;DHT22;2117;47.972;7.830;2022-11-15T18:46:02;12.00;99.90
4207;DHT22;2117;47.972;7.830;2022-11-15T18:48:32;12.00;99.90
4207;DHT22;2117;47.972;7.830;2022-11-15T18:51:06;12.00;99.90
4207;DHT22;2117;47.972;7.830;2022-11-15T18:53:32;12.00;99.90
4207;DHT22;2117;47.972;7.830;2022-11-15T18:56:06;12.10;99.90
4207;DHT22;2117;47.972;7.830;2022-11-15T18:58:33;12.10;99.90
4207;DHT22;2117;47.972;7.830;2022-11-15T19:03:34;12.00;99.90
4207;DHT22;2117;47.972;7.830;2022-11-15T19:06:03;12.00;99.90
4207;DHT22;2117;47.972;7.830;2022-11-15T19:08:29;12.00;99.90
4207;DHT22;2117;47.972;7.830;2022-11-15T19:10:55;12.00;99.90
4207;DHT22;2117;47.972;7.830;2022-11-15T19:13:21;12.00;99.90
4207;DHT22;2117;47.972;7.830;2022-11-15T19:15:46;11.90;99.90
4207;DHT22;2117;47.972;7.830;2022-11-15T19:18:12;11.90;99.90
4207;DHT22;2117;47.972;7.830;2022-11-15T19:20:38;11.90;99.90
4207;DHT22;2117;47.972;7.830;2022-11-15T19:23:04;11.90;99.90
4207;DHT22;2117;47.972;7.830;2022-11-15T19:25:29;11.90;99.90
4207;DHT22;2117;47.972;7.830;2022-11-15T19:27:55;11.80;99.90
4207;DHT22;2117;47.972;7.830;2022-11-15T19:30:20;11.80;99.90
4207;DHT22;2117;47.972;7.830;2022-11-15T19:32:46;11.80;99.90
4207;DHT22;2117;47.972;7.830;2022-11-15T19:35:11;11.80;99.90
4207;DHT22;2117;47.972;7.830;2022-11-15T19:37:37;11.80;99.90
4207;DHT22;2117;47.972;7.830;2022-11-15T19:40:03;11.80;99.90
4207;DHT22;2117;47.972;7.830;2022-11-15T19:42:29;11.80;99.90
4207;DHT22;2117;47.972;7.830;2022-11-15T19:44:55;11.80;99.90
4207;DHT22;2117;47.972;7.830;2022-11-15T19:47:20;11.90;99.90
4207;DHT22;2117;47.972;7.830;2022-11-15T19:49:46;11.90;99.90
4207;DHT22;2117;47.972;7.830;2022-11-15T19:52:11;12.00;99.90
4207;DHT22;2117;47.972;7.830;2022-11-15T19:54:37;12.10;99.90
4207;DHT22;2117;47.972;7.830;2022-11-15T19:57:02;12.00;99.90
4207;DHT22;2117;47.972;7.830;2022-11-15T19:59:28;12.00;99.90
4207;DHT22;2117;47.972;7.830;2022-11-15T20:01:53;11.90;99.90
4207;DHT22;2117;47.972;7.830;2022-11-15T20:04:19;11.90;99.90
4207;DHT22;2117;47.972;7.830;2022-11-15T20:06:44;11.90;99.90
4207;DHT22;2117;47.972;7.830;2022-11-15T20:09:12;11.80;99.90
4207;DHT22;2117;47.972;7.830;2022-11-15T20:11:38;11.90;99.90
4207;DHT22;2117;47.972;7.830;2022-11-15T20:14:04;11.90;99.90
4207;DHT22;2117;47.972;7.830;2022-11-15T20:16:32;11.90;99.90
4207;DHT22;2117;47.972;7.830;2022-11-15T20:18:58;11.80;99.90
4207;DHT22;2117;47.972;7.830;2022-11-15T20:21:24;11.80;99.90
4207;DHT22;2117;47.972;7.830;2022-11-15T20:23:50;11.80;99.90
4207;DHT22;2117;47.972;7.830;2022-11-15T20:26:17;11.80;99.90
4207;DHT22;2117;47.972;7.830;2022-11-15T20:28:42;11.80;99.90
4207;DHT22;2117;47.972;7.830;2022-11-15T20:31:09;11.80;99.90
4207;DHT22;2117;47.972;7.830;2022-11-15T20:33:35;11.80;99.90
4207;DHT22;2117;47.972;7.830;2022-11-15T20:36:10;11.70;99.90
4207;DHT22;2117;47.972;7.830;2022-11-15T20:38:35;11.70;99.90
4207;DHT22;2117;47.972;7.830;2022-11-15T20:41:02;11.70;99.90
4207;DHT22;2117;47.972;7.830;2022-11-15T20:43:27;11.60;99.90
4207;DHT22;2117;47.972;7.830;2022-11-15T20:45:53;11.60;99.90
4207;DHT22;2117;47.972;7.830;2022-11-15T20:48:18;11.70;99.90